^^
Grace C. Lehan Memorial Weather Station Historical Data
Daily Summary for January 9, 2021 Units:  English    Metric   Both
Daily Weekly Monthly Yearly
  High: Low: Average:
Temperature: 66.7 °F 57.6 °F 61.1 °F
Dew Point: 58.2 °F 53.1 °F 55.3 °F
Humidity: 91% 71.4% 82%
Wind Speed: 4.1mph 0mph 0.6mph
Wind Gust: 12mph - -
Wind- - East
Pressure: 30.27 in 30.22 in -
Precipitation: 0.00 in    
 
 
Tabular Data for January 9, 2021
Time Temperature Dew Point Pressure Wind Wind Speed Wind Gust Humidity Rainfall Rate (Hourly) solar
00:00 58.2 °F 54.7 °F 30.22 in Calm     88% 0.00 in 0 W/m2
00:09 58.1 °F 54.6 °F 30.22 in Calm   2 mph 88.3% 0.00 in 0 W/m2
00:14 58 °F 54.8 °F 30.22 in Calm   2 mph 89% 0.00 in 0 W/m2
00:19 58 °F 54.8 °F 30.22 in Calm   2 mph 89% 0.00 in 0 W/m2
00:24 58 °F 54.8 °F 30.22 in Calm   2 mph 89% 0.00 in 0 W/m2
00:29 58 °F 54.9 °F 30.22 in NE 0.1 mph 3 mph 89.3% 0.00 in 0 W/m2
00:34 58 °F 54.9 °F 30.22 in NE 0.1 mph 3 mph 89.2% 0.00 in 0 W/m2
00:39 58 °F 54.7 °F 30.22 in Calm   2 mph 89% 0.00 in 0 W/m2
00:44 57.9 °F 54.7 °F 30.22 in Calm   2 mph 89% 0.00 in 0 W/m2
00:49 57.8 °F 54.6 °F 30.22 in Calm   2 mph 89% 0.00 in 0 W/m2
00:54 57.7 °F 54.5 °F 30.22 in Calm   2 mph 89% 0.00 in 0 W/m2
00:59 57.7 °F 54.6 °F 30.22 in Calm   2 mph 89.3% 0.00 in 0 W/m2
01:04 57.6 °F 54.8 °F 30.22 in Calm   2 mph 90.4% 0.00 in 0 W/m2
01:09 57.6 °F 54.9 °F 30.23 in Calm   1 mph 90.6% 0.00 in 0 W/m2
01:14 57.6 °F 54.7 °F 30.23 in Calm   1 mph 90% 0.00 in 0 W/m2
01:19 57.6 °F 54.7 °F 30.23 in Calm   1 mph 90% 0.00 in 0 W/m2
01:24 57.7 °F 54.8 °F 30.23 in Calm   1 mph 90% 0.00 in 0 W/m2
01:29 57.8 °F 54.9 °F 30.23 in Calm   1 mph 90% 0.00 in 0 W/m2
01:34 57.9 °F 54.9 °F 30.23 in NE 0.1 mph 2 mph 89.7% 0.00 in 0 W/m2
01:39 58 °F 54.8 °F 30.23 in NE 0.1 mph 2 mph 89% 0.00 in 0 W/m2
01:44 58.1 °F 54.9 °F 30.23 in Calm   2 mph 89% 0.00 in 0 W/m2
01:49 58.2 °F 55 °F 30.23 in Calm   2 mph 89% 0.00 in 0 W/m2
01:54 58.4 °F 55.1 °F 30.23 in Calm   2 mph 89% 0.00 in 0 W/m2
01:59 58.4 °F 55 °F 30.23 in Calm   2 mph 88.4% 0.00 in 0 W/m2
02:04 58.4 °F 54.9 °F 30.23 in Calm   2 mph 88% 0.00 in 0 W/m2
02:08 58.5 °F 55 °F 30.23 in Calm     88% 0.00 in 0 W/m2
02:30 58.7 °F 55.2 °F 30.23 in Calm     88% 0.00 in 0 W/m2
03:00 58.5 °F 54.7 °F 30.23 in Calm     87% 0.00 in 0 W/m2
03:30 58.4 °F 55.2 °F 30.23 in Calm   3 mph 89% 0.00 in 0 W/m2
04:04 58.7 °F 54.8 °F 30.24 in Calm     87% 0.00 in 0 W/m2
04:09 58.7 °F 54.8 °F 30.24 in Calm   1 mph 87% 0.00 in 0 W/m2
04:14 58.7 °F 54.9 °F 30.24 in Calm   1 mph 87% 0.00 in 0 W/m2
04:19 58.8 °F 54.9 °F 30.24 in Calm   1 mph 87% 0.00 in 0 W/m2
04:24 58.8 °F 54.9 °F 30.24 in Calm   1 mph 87% 0.00 in 0 W/m2
04:29 58.8 °F 55 °F 30.24 in NE 0.3 mph 4 mph 87% 0.00 in 0 W/m2
04:34 58.8 °F 55 °F 30.24 in Calm   4 mph 87% 0.00 in 0 W/m2
04:39 58.8 °F 55 °F 30.24 in NNE 0.6 mph 6 mph 87% 0.00 in 0 W/m2
04:44 58.8 °F 55 °F 30.24 in Calm   6 mph 87% 0.00 in 0 W/m2
04:49 58.8 °F 55 °F 30.24 in NE 0.2 mph 6 mph 87% 0.00 in 0 W/m2
04:54 58.8 °F 55 °F 30.24 in NE 0.1 mph 6 mph 87% 0.00 in 0 W/m2
04:59 58.8 °F 55 °F 30.24 in Calm   6 mph 87% 0.00 in 0 W/m2
05:04 58.8 °F 55 °F 30.24 in Calm   6 mph 87% 0.00 in 0 W/m2
05:09 58.8 °F 55 °F 30.24 in Calm   1 mph 87% 0.00 in 0 W/m2
05:14 58.8 °F 55 °F 30.24 in WNW 0.1 mph 5 mph 87% 0.00 in 0 W/m2
05:19 58.8 °F 55 °F 30.24 in NW 0.4 mph 5 mph 87% 0.00 in 0 W/m2
05:24 58.8 °F 54.9 °F 30.24 in Calm   5 mph 87% 0.00 in 0 W/m2
05:29 58.7 °F 54.9 °F 30.25 in Calm   5 mph 87% 0.00 in 0 W/m2
05:34 58.7 °F 54.9 °F 30.24 in Calm   5 mph 87% 0.00 in 0 W/m2
05:39 58.7 °F 54.8 °F 30.24 in Calm     87% 0.00 in 0 W/m2
05:44 58.7 °F 55 °F 30.24 in North 0.4 mph 5 mph 87.4% 0.00 in 0 W/m2
05:49 58.7 °F 55.2 °F 30.24 in Calm   5 mph 88% 0.00 in 0 W/m2
05:54 58.7 °F 55.2 °F 30.25 in NNW 0.1 mph 5 mph 88% 0.00 in 0 W/m2
05:59 58.7 °F 55.1 °F 30.25 in NNW 0.1 mph 5 mph 88% 0.00 in 0 W/m2
06:04 58.6 °F 55.1 °F 30.24 in Calm   5 mph 88% 0.00 in 0 W/m2
06:09 58.6 °F 55.1 °F 30.24 in North 0.3 mph 3 mph 88% 0.00 in 0 W/m2
06:14 58.6 °F 55.1 °F 30.24 in Calm   3 mph 88% 0.00 in 0 W/m2
06:19 58.6 °F 55.1 °F 30.24 in North 0.4 mph 5 mph 88% 0.00 in 0 W/m2
06:24 58.6 °F 55 °F 30.24 in Calm   5 mph 88% 0.00 in 0 W/m2
06:29 58.5 °F 55 °F 30.24 in Calm   5 mph 88% 0.00 in 0 W/m2
06:34 58.5 °F 54.9 °F 30.24 in Calm   5 mph 88% 0.00 in 0 W/m2
06:39 58.4 °F 54.9 °F 30.24 in Calm     88% 0.00 in 0 W/m2
06:44 58.3 °F 55.1 °F 30.24 in Calm   1 mph 88.8% 0.00 in 0 W/m2
06:49 58.3 °F 55.1 °F 30.24 in NNE 0.1 mph 3 mph 89% 0.00 in 0 W/m2
06:54 58.2 °F 55 °F 30.24 in Calm   3 mph 89% 0.00 in 0 W/m2
06:59 58.2 °F 55 °F 30.24 in NNE 0.2 mph 5 mph 89% 0.00 in 5 W/m2
07:04 58.2 °F 54.9 °F 30.24 in Calm   5 mph 89% 0.00 in 9 W/m2
07:09 58.1 °F 54.9 °F 30.24 in NNW 0.2 mph 5 mph 89% 0.00 in 18 W/m2
07:14 58 °F 54.8 °F 30.24 in NNE 0.3 mph 5 mph 89% 0.00 in 23 W/m2
07:19 57.9 °F 54.8 °F 30.25 in NNW 0.6 mph 9 mph 89.3% 0.00 in 26 W/m2
07:24 57.8 °F 54.9 °F 30.25 in NNW 0.1 mph 9 mph 90% 0.00 in 33 W/m2
07:29 57.8 °F 54.9 °F 30.25 in Calm   9 mph 90% 0.00 in 39 W/m2
07:34 57.7 °F 54.8 °F 30.25 in Calm   9 mph 90% 0.00 in 47 W/m2
07:39 57.8 °F 55 °F 30.25 in NNW 0.1 mph 2 mph 90.5% 0.00 in 47 W/m2
07:44 57.8 °F 55.1 °F 30.26 in Calm   2 mph 90.8% 0.00 in 46 W/m2
07:49 57.8 °F 55.2 °F 30.26 in Calm   2 mph 91% 0.00 in 46 W/m2
07:54 57.9 °F 55.3 °F 30.26 in Calm   2 mph 91% 0.00 in 62 W/m2
07:59 58 °F 55.4 °F 30.26 in NNW 0.1 mph 3 mph 91% 0.00 in 65 W/m2
08:04 58.2 °F 55.6 °F 30.25 in Calm     91% 0.00 in 60 W/m2
08:09 58.3 °F 55.6 °F 30.25 in Calm     91% 0.00 in 90 W/m2
08:14 58.4 °F 55.8 °F 30.25 in Calm     91% 0.00 in 100 W/m2
08:19 58.7 °F 56.1 °F 30.25 in Calm     91% 0.00 in 111 W/m2
08:24 58.9 °F 56.2 °F 30.25 in Calm   1 mph 90.6% 0.00 in 118 W/m2
08:29 59.2 °F 56.3 °F 30.26 in NNE 0.2 mph 3 mph 90.2% 0.00 in 123 W/m2
08:34 59.5 °F 56.4 °F 30.26 in NNE 0.3 mph 5 mph 89.8% 0.00 in 123 W/m2
08:39 59.7 °F 56.4 °F 30.26 in NE 0.3 mph 5 mph 89% 0.00 in 118 W/m2
08:44 59.9 °F 56.7 °F 30.26 in Calm   5 mph 89% 0.00 in 107 W/m2
08:49 60.2 °F 56.9 °F 30.26 in NE 0.4 mph 5 mph 89% 0.00 in 109 W/m2
08:54 60.4 °F 56.9 °F 30.26 in NE 0.9 mph 5 mph 88.3% 0.00 in 109 W/m2
08:59 60.6 °F 57 °F 30.26 in NE 1 mph 5 mph 87.8% 0.00 in 105 W/m2
09:04 60.7 °F 56.7 °F 30.27 in ENE 0.3 mph 5 mph 86.7% 0.00 in 118 W/m2
09:09 60.8 °F 56.6 °F 30.27 in East 0.7 mph 6 mph 86% 0.00 in 120 W/m2
09:14 61 °F 56.8 °F 30.27 in NE 1.7 mph 7 mph 86% 0.00 in 141 W/m2
09:19 61.2 °F 56.7 °F 30.26 in NE 1.8 mph 7 mph 85.4% 0.00 in 141 W/m2
09:24 61.3 °F 56.7 °F 30.27 in ENE 1.9 mph 7 mph 84.6% 0.00 in 121 W/m2
09:29 61.5 °F 56.8 °F 30.27 in NE 0.6 mph 7 mph 84.7% 0.00 in 132 W/m2
09:34 61.7 °F 57.2 °F 30.27 in ENE 0.8 mph 7 mph 85% 0.00 in 148 W/m2
09:39 61.9 °F 57 °F 30.27 in East 2.1 mph 6 mph 84.1% 0.00 in 179 W/m2
09:44 62 °F 56.9 °F 30.27 in ENE 2.3 mph 8 mph 83.3% 0.00 in 274 W/m2
09:49 62.3 °F 57 °F 30.27 in ENE 3.6 mph 11 mph 82.6% 0.00 in 322 W/m2
09:54 62.7 °F 57.1 °F 30.27 in East 4 mph 11 mph 81.7% 0.00 in 332 W/m2
09:59 63.1 °F 57.2 °F 30.27 in East 1.7 mph 11 mph 81% 0.00 in 418 W/m2
10:04 63.8 °F 57.9 °F 30.27 in ENE 2.3 mph 11 mph 81.1% 0.00 in 496 W/m2
10:09 64.5 °F 58.1 °F 30.27 in ENE 1.3 mph 10 mph 79.6% 0.00 in 554 W/m2
10:14 65.2 °F 58.2 °F 30.26 in East 2.9 mph 10 mph 77.9% 0.00 in 677 W/m2
10:19 65.8 °F 57.9 °F 30.26 in East 4.1 mph 10 mph 75.7% 0.00 in 538 W/m2
10:24 65.8 °F 57.6 °F 30.26 in ENE 3 mph 12 mph 75% 0.00 in 246 W/m2
10:29 65.2 °F 57.3 °F 30.26 in East 1.8 mph 12 mph 75.4% 0.00 in 255 W/m2
10:34 64.8 °F 57.2 °F 30.26 in East 0.6 mph 12 mph 76.3% 0.00 in 229 W/m2
10:39 64.6 °F 57.6 °F 30.26 in East 0.5 mph 4 mph 77.9% 0.00 in 237 W/m2
10:44 64.7 °F 57.5 °F 30.26 in ENE 0.6 mph 4 mph 77.3% 0.00 in 239 W/m2
10:49 64.8 °F 57.6 °F 30.26 in ENE 1.2 mph 7 mph 77.5% 0.00 in 285 W/m2
10:54 64.9 °F 57.5 °F 30.26 in ENE 2.7 mph 9 mph 76.9% 0.00 in 294 W/m2
10:59 65 °F 57.3 °F 30.27 in East 1.7 mph 9 mph 76.2% 0.00 in 285 W/m2
11:04 65.1 °F 57.2 °F 30.27 in East 0.7 mph 9 mph 75.7% 0.00 in 214 W/m2
11:09 65.1 °F 57.1 °F 30.27 in East 1.1 mph 6 mph 75.2% 0.00 in 183 W/m2
11:14 65.2 °F 56.9 °F 30.27 in East 0.1 mph 6 mph 74.7% 0.00 in 148 W/m2
11:19 65.1 °F 57.1 °F 30.27 in East 1.2 mph 6 mph 75.3% 0.00 in 158 W/m2
11:24 65 °F 57.2 °F 30.27 in ENE 0.8 mph 6 mph 75.8% 0.00 in 200 W/m2
11:29 65 °F 57.1 °F 30.27 in ENE 1.8 mph 6 mph 75.6% 0.00 in 230 W/m2
11:34 64.9 °F 57 °F 30.27 in ENE 1.3 mph 6 mph 75.6% 0.00 in 236 W/m2
11:39 65.1 °F 57 °F 30.27 in NE 1.8 mph 7 mph 75.3% 0.00 in 232 W/m2
11:44 65.2 °F 57.1 °F 30.27 in NE 1.7 mph 9 mph 75% 0.00 in 206 W/m2
11:49 65.3 °F 57.3 °F 30.27 in ENE 0.4 mph 9 mph 75.3% 0.00 in 158 W/m2
11:54 65.4 °F 57.2 °F 30.27 in ENE 0.8 mph 9 mph 75% 0.00 in 151 W/m2
11:59 65.3 °F 57 °F 30.27 in East 1.5 mph 9 mph 74.6% 0.00 in 158 W/m2
12:09 64.9 °F 56.9 °F 30.27 in ESE 0.9 mph 4 mph 75.3% 0.00 in 216 W/m2
12:14 65 °F 57.1 °F 30.27 in NE 1.5 mph 9 mph 75.6% 0.00 in 178 W/m2
12:19 65.1 °F 56.8 °F 30.27 in East 2.1 mph 9 mph 74.4% 0.00 in 197 W/m2
12:24 65.2 °F 56.8 °F 30.26 in East 1.8 mph 9 mph 74.3% 0.00 in 262 W/m2
12:29 65.4 °F 57 °F 30.26 in East 0.2 mph 9 mph 74.2% 0.00 in 246 W/m2
12:34 65.6 °F 57.2 °F 30.26 in ENE 0.3 mph 9 mph 74.3% 0.00 in 206 W/m2
12:39 65.8 °F 57 °F 30.26 in ENE 0.4 mph 4 mph 73.4% 0.00 in 190 W/m2
12:44 65.8 °F 57 °F 30.26 in East 0.9 mph 4 mph 73.1% 0.00 in 204 W/m2
12:49 65.8 °F 57.1 °F 30.25 in ENE 2.6 mph 7 mph 73.4% 0.00 in 221 W/m2
12:54 65.9 °F 57.1 °F 30.25 in ENE 2.1 mph 7 mph 73.3% 0.00 in 216 W/m2
12:59 66 °F 57.3 °F 30.25 in ENE 2.3 mph 12 mph 73.6% 0.00 in 241 W/m2
13:04 65.9 °F 56.9 °F 30.25 in ENE 0.7 mph 12 mph 72.8% 0.00 in 257 W/m2
13:09 65.9 °F 56.9 °F 30.25 in ENE 2.7 mph 7 mph 72.6% 0.00 in 260 W/m2
13:14 66 °F 57.3 °F 30.25 in East 1.1 mph 7 mph 73.4% 0.00 in 360 W/m2
13:19 66.3 °F 57.8 °F 30.25 in ENE 0.3 mph 7 mph 74.1% 0.00 in 267 W/m2
13:24 66.6 °F 57.6 °F 30.25 in ENE 0.8 mph 7 mph 72.8% 0.00 in 237 W/m2
13:29 66.7 °F 57.6 °F 30.25 in ENE 2.8 mph 8 mph 72.5% 0.00 in 192 W/m2
13:34 66.6 °F 57.2 °F 30.25 in East 2.1 mph 8 mph 71.7% 0.00 in 200 W/m2
13:39 66.4 °F 57.1 °F 30.25 in ENE 1.2 mph 6 mph 72% 0.00 in 199 W/m2
13:44 66.3 °F 57.1 °F 30.25 in ENE 0.5 mph 6 mph 72.2% 0.00 in 165 W/m2
13:49 66.3 °F 57.2 °F 30.25 in East 0.4 mph 6 mph 72.6% 0.00 in 134 W/m2
13:54 66.1 °F 56.6 °F 30.25 in East 1.3 mph 7 mph 71.4% 0.00 in 123 W/m2
13:59 65.9 °F 56.6 °F 30.25 in ENE 2.8 mph 9 mph 71.9% 0.00 in 104 W/m2
14:04 65.7 °F 56.4 °F 30.25 in ENE 0.7 mph 9 mph 72% 0.00 in 77 W/m2
14:09 65.5 °F 56.3 °F 30.25 in ENE 0.3 mph 7 mph 72.3% 0.00 in 86 W/m2
14:10 65.4 °F 56.9 °F 30.25 in Calm   7 mph 74% 0.00 in 83 W/m2
14:30 65.5 °F 57 °F 30.24 in Calm   7 mph 74% 0.00 in 94 W/m2
15:00 64.9 °F 56.8 °F 30.23 in Calm   7 mph 75% 0.00 in 54 W/m2
15:30 64.1 °F 56.4 °F 30.24 in ENE 1 mph 10 mph 76% 0.00 in 31 W/m2
16:04 63.5 °F 55.8 °F 30.23 in ENE 2.7 mph 5 mph 76% 0.00 in 83 W/m2
16:09 63.5 °F 55.8 °F 30.23 in ENE 1.1 mph 7 mph 76% 0.00 in 86 W/m2
16:14 63.5 °F 55.9 °F 30.23 in East 1.1 mph 7 mph 76.2% 0.00 in 88 W/m2
16:19 63.5 °F 55.9 °F 30.23 in ENE 0.6 mph 7 mph 76% 0.00 in 88 W/m2
16:24 63.6 °F 55.8 °F 30.23 in ENE 1.6 mph 7 mph 75.8% 0.00 in 72 W/m2
16:29 63.5 °F 55.7 °F 30.24 in ENE 1.6 mph 7 mph 75.7% 0.00 in 72 W/m2
16:34 63.5 °F 55.7 °F 30.24 in East 0.6 mph 7 mph 75.8% 0.00 in 37 W/m2
16:39 63.5 °F 55.8 °F 30.24 in East 0.7 mph 4 mph 76% 0.00 in 40 W/m2
16:44 63.4 °F 55.7 °F 30.24 in ENE 1.2 mph 5 mph 76% 0.00 in 35 W/m2
16:49 63.3 °F 55.7 °F 30.24 in East 2.1 mph 7 mph 76% 0.00 in 32 W/m2
16:54 63.2 °F 55.6 °F 30.24 in East 0.3 mph 7 mph 76% 0.00 in 28 W/m2
16:59 63.2 °F 55.7 °F 30.24 in ESE 0.4 mph 7 mph 76.5% 0.00 in 26 W/m2
17:04 63.1 °F 55.5 °F 30.25 in East 0.2 mph 7 mph 76.1% 0.00 in 25 W/m2
17:09 63.1 °F 55.8 °F 30.25 in East 0.2 mph 3 mph 77% 0.00 in 19 W/m2
17:14 63 °F 55.7 °F 30.25 in ENE 0.2 mph 4 mph 77% 0.00 in 19 W/m2
17:19 62.9 °F 55.6 °F 30.25 in ENE 0.1 mph 4 mph 77% 0.00 in 18 W/m2
17:24 62.9 °F 55.6 °F 30.24 in ENE 0.1 mph 4 mph 77% 0.00 in 19 W/m2
17:29 62.7 °F 55.4 °F 30.24 in ESE 0.1 mph 4 mph 77% 0.00 in 18 W/m2
17:34 62.7 °F 55.4 °F 30.24 in Calm   4 mph 77% 0.00 in 21 W/m2
17:39 62.6 °F 55.3 °F 30.24 in East 1 mph 6 mph 77% 0.00 in 32 W/m2
17:44 62.5 °F 55.2 °F 30.24 in East 0.1 mph 6 mph 77% 0.00 in 33 W/m2
17:49 62.5 °F 55.2 °F 30.24 in NE 0.5 mph 6 mph 77% 0.00 in 25 W/m2
17:54 62.5 °F 55.2 °F 30.25 in NE 0.1 mph 6 mph 77.1% 0.00 in 14 W/m2
17:59 62.4 °F 55.1 °F 30.25 in Calm   6 mph 77.1% 0.00 in 11 W/m2
18:04 62.3 °F 55 °F 30.25 in NE 0.2 mph 6 mph 77% 0.00 in 7 W/m2
18:09 62.3 °F 54.9 °F 30.25 in NE 1.2 mph 10 mph 76.7% 0.00 in 5 W/m2
18:14 62.2 °F 54.8 °F 30.25 in ENE 0.4 mph 10 mph 76.8% 0.00 in 5 W/m2
18:19 62.2 °F 54.8 °F 30.25 in ENE 0.1 mph 10 mph 76.7% 0.00 in 0 W/m2
18:24 62.1 °F 54.5 °F 30.25 in East 1.6 mph 10 mph 76.1% 0.00 in 0 W/m2
18:29 62 °F 54.4 °F 30.25 in East 0.2 mph 10 mph 76% 0.00 in 0 W/m2
18:32 62 °F 54.4 °F 30.25 in Calm   10 mph 76% 0.00 in 0 W/m2
19:00 61.6 °F 53.6 °F 30.26 in Calm   6 mph 75% 0.00 in 0 W/m2
19:30 61.4 °F 53.8 °F 30.26 in Calm   6 mph 76% 0.00 in 0 W/m2
20:04 61.1 °F 53.1 °F 30.26 in Calm     75% 0.00 in 0 W/m2
20:09 61.1 °F 53.3 °F 30.26 in ENE 0.1 mph 2 mph 75.5% 0.00 in 0 W/m2
20:14 61 °F 53.1 °F 30.27 in NE 0.8 mph 6 mph 75.3% 0.00 in 0 W/m2
20:19 61 °F 53.2 °F 30.26 in ENE 1 mph 6 mph 75.7% 0.00 in 0 W/m2
20:24 60.9 °F 53.2 °F 30.26 in East 1.2 mph 9 mph 75.8% 0.00 in 0 W/m2
20:29 60.9 °F 53.2 °F 30.26 in NE 0.8 mph 9 mph 75.9% 0.00 in 0 W/m2
20:34 60.8 °F 53.2 °F 30.26 in NE 1.1 mph 9 mph 76% 0.00 in 0 W/m2
20:39 60.8 °F 53.2 °F 30.26 in ENE 0.3 mph 4 mph 76% 0.00 in 0 W/m2
20:44 60.7 °F 53.1 °F 30.26 in ENE 1.5 mph 7 mph 76% 0.00 in 0 W/m2
20:49 60.7 °F 53.2 °F 30.26 in East 0.5 mph 7 mph 76.2% 0.00 in 0 W/m2
20:54 60.6 °F 53.3 °F 30.26 in East 0.6 mph 7 mph 76.8% 0.00 in 0 W/m2
20:59 60.6 °F 53.3 °F 30.26 in Calm   7 mph 77% 0.00 in 0 W/m2
21:04 60.5 °F 53.3 °F 30.27 in Calm   7 mph 77% 0.00 in 0 W/m2
21:09 60.5 °F 53.3 °F 30.27 in NE 0.5 mph 5 mph 77% 0.00 in 0 W/m2
21:14 60.4 °F 53.2 °F 30.27 in NE 0.3 mph 5 mph 77% 0.00 in 0 W/m2
21:19 60.4 °F 53.4 °F 30.27 in NE 0.1 mph 5 mph 77.5% 0.00 in 0 W/m2
21:24 60.3 °F 53.3 °F 30.27 in Calm   5 mph 77.5% 0.00 in 0 W/m2
21:29 60.3 °F 53.3 °F 30.27 in NE 0.2 mph 5 mph 77.7% 0.00 in 0 W/m2
21:34 60.3 °F 53.4 °F 30.27 in Calm   5 mph 78% 0.00 in 0 W/m2
21:39 60.2 °F 53.3 °F 30.27 in East 0.7 mph 5 mph 78% 0.00 in 0 W/m2
21:44 60.2 °F 53.3 °F 30.27 in ENE 0.5 mph 5 mph 78% 0.00 in 0 W/m2
21:49 60.2 °F 53.4 °F 30.27 in Calm   5 mph 78.2% 0.00 in 0 W/m2
21:54 60.1 °F 53.4 °F 30.26 in ENE 1.3 mph 5 mph 78.4% 0.00 in 0 W/m2
21:59 60.1 °F 53.6 °F 30.27 in ENE 0.4 mph 5 mph 79% 0.00 in 0 W/m2
22:04 60 °F 53.3 °F 30.27 in East 2.1 mph 7 mph 78.4% 0.00 in 0 W/m2
22:09 60 °F 53.2 °F 30.27 in ENE 1.4 mph 7 mph 78.3% 0.00 in 0 W/m2
22:14 60 °F 53.5 °F 30.27 in ENE 2.2 mph 7 mph 79% 0.00 in 0 W/m2
22:19 60 °F 53.5 °F 30.26 in East 0.5 mph 7 mph 79% 0.00 in 0 W/m2
22:24 59.9 °F 53.4 °F 30.26 in ENE 1.4 mph 7 mph 79% 0.00 in 0 W/m2
22:29 59.9 °F 53.4 °F 30.26 in ENE 0.8 mph 7 mph 79% 0.00 in 0 W/m2
22:34 59.9 °F 53.4 °F 30.26 in NE 1.5 mph 7 mph 79% 0.00 in 0 W/m2
22:39 59.9 °F 53.4 °F 30.26 in ENE 0.2 mph 6 mph 79% 0.00 in 0 W/m2
22:44 59.8 °F 53.6 °F 30.26 in ENE 0.5 mph 6 mph 79.8% 0.00 in 0 W/m2
22:49 59.8 °F 53.6 °F 30.26 in NE 0.6 mph 6 mph 80% 0.00 in 0 W/m2
22:54 59.7 °F 53.6 °F 30.26 in NE 0.6 mph 6 mph 80% 0.00 in 0 W/m2
22:59 59.7 °F 53.5 °F 30.26 in NE 0.5 mph 6 mph 80% 0.00 in 0 W/m2
23:04 59.6 °F 53.5 °F 30.26 in NE 0.3 mph 4 mph 80% 0.00 in 0 W/m2
23:09 59.6 °F 53.4 °F 30.26 in NE 0.7 mph 5 mph 80% 0.00 in 0 W/m2
23:14 59.6 °F 53.4 °F 30.26 in NE 1 mph 5 mph 80% 0.00 in 0 W/m2
23:19 59.6 °F 53.7 °F 30.25 in NE 0.2 mph 5 mph 80.8% 0.00 in 0 W/m2
23:24 59.5 °F 53.7 °F 30.25 in NE 0.6 mph 5 mph 81% 0.00 in 0 W/m2
23:29 59.4 °F 53.6 °F 30.25 in Calm   5 mph 81% 0.00 in 0 W/m2
23:34 59.4 °F 53.6 °F 30.25 in NE 0.8 mph 5 mph 81% 0.00 in 0 W/m2
23:39 59.3 °F 53.5 °F 30.25 in NE 0.1 mph 4 mph 81% 0.00 in 0 W/m2
23:44 59.3 °F 53.5 °F 30.25 in ENE 0.2 mph 4 mph 81% 0.00 in 0 W/m2
23:49 59.3 °F 53.7 °F 30.26 in Calm   4 mph 81.7% 0.00 in 0 W/m2
23:54 59.2 °F 53.7 °F 30.26 in ENE 0.2 mph 4 mph 82% 0.00 in 0 W/m2
23:59 59.2 °F 53.7 °F 30.26 in ENE 0.1 mph 4 mph 82% 0.00 in 0 W/m2
Hartford County Weather
Compliments of Weather Underground - 4 mb